createdAt,value
2018-11-01T00:04:34.052Z,2.83
2018-11-01T00:09:52.613Z,1.83
2018-11-01T00:15:12.830Z,1.17
2018-11-01T00:20:32.058Z,1.93
2018-11-01T00:25:50.630Z,2.00
2018-11-01T00:31:09.299Z,1.67
2018-11-01T00:36:28.164Z,1.67
2018-11-01T00:41:46.697Z,1.30
2018-11-01T00:47:05.305Z,1.43
2018-11-01T00:52:24.057Z,5.00
2018-11-01T00:57:42.973Z,3.77
2018-11-01T01:03:01.508Z,2.60
2018-11-01T01:08:20.698Z,1.30
2018-11-01T01:13:39.287Z,2.00
2018-11-01T01:18:57.916Z,3.13
2018-11-01T01:24:16.476Z,3.87
2018-11-01T01:29:35.044Z,1.80
2018-11-01T01:34:54.190Z,3.30
2018-11-01T01:40:13.002Z,2.08
2018-11-01T01:45:31.634Z,1.87
2018-11-01T01:50:50.265Z,3.20
2018-11-01T01:56:08.845Z,1.37
2018-11-01T02:01:27.486Z,1.40
2018-11-01T02:06:46.998Z,2.70
2018-11-01T02:12:05.620Z,9.60
2018-11-01T02:17:24.175Z,1.63
2018-11-01T02:22:43.677Z,2.20
2018-11-01T02:28:07.452Z,2.37
2018-11-01T02:33:26.071Z,1.20
2018-11-01T02:38:44.826Z,1.70
2018-11-01T02:44:04.243Z,1.60
2018-11-01T02:49:22.874Z,2.17
2018-11-01T02:54:41.557Z,1.40
2018-11-01T03:00:00.276Z,2.60
2018-11-01T03:05:19.300Z,2.90
2018-11-01T03:10:38.404Z,2.77
2018-11-01T03:15:58.745Z,2.20
2018-11-01T03:21:17.320Z,6.00
2018-11-01T03:26:36.045Z,3.13
2018-11-01T03:31:54.596Z,3.37
2018-11-01T03:37:13.260Z,3.87
2018-11-01T03:42:31.874Z,4.20
2018-11-01T03:47:50.959Z,2.90
2018-11-01T03:53:09.537Z,2.53
2018-11-01T03:58:28.119Z,1.57
2018-11-01T04:03:46.768Z,4.20
2018-11-01T04:09:09.141Z,2.13
2018-11-01T04:14:27.746Z,6.33
2018-11-01T04:19:46.336Z,2.00
2018-11-01T04:25:05.903Z,2.63
2018-11-01T04:30:26.657Z,4.40
2018-11-01T04:35:45.848Z,4.13
2018-11-01T04:41:04.518Z,3.20
2018-11-01T04:46:24.003Z,3.57
2018-11-01T04:51:42.710Z,3.20
2018-11-01T04:57:01.438Z,3.30
2018-11-01T05:02:20.023Z,2.75
2018-11-01T05:07:38.984Z,4.83
2018-11-01T05:12:57.648Z,4.67
2018-11-01T05:18:16.286Z,1.80
2018-11-01T05:23:34.951Z,2.43
2018-11-01T05:28:53.556Z,3.37
2018-11-01T05:34:12.545Z,2.67
2018-11-01T05:39:33.239Z,2.85
2018-11-01T05:44:52.489Z,2.27
2018-11-01T05:50:12.576Z,2.93
2018-11-01T05:55:31.176Z,4.63
2018-11-01T06:00:50.254Z,4.00
2018-11-01T06:06:09.927Z,3.43
2018-11-01T06:11:29.080Z,3.50
2018-11-01T06:16:47.751Z,4.27
2018-11-01T06:22:06.571Z,3.53
2018-11-01T06:27:25.451Z,3.73
2018-11-01T06:32:45.496Z,2.90
2018-11-01T06:38:04.070Z,2.07
2018-11-01T06:43:23.103Z,3.97
2018-11-01T06:48:42.041Z,2.87
2018-11-01T06:54:00.599Z,8.53
2018-11-01T06:59:19.433Z,3.77
2018-11-01T07:04:38.154Z,3.30
2018-11-01T07:09:57.384Z,4.43
2018-11-01T07:15:16.791Z,4.10
2018-11-01T07:20:35.420Z,4.50
2018-11-01T07:25:54.277Z,3.37
2018-11-01T07:31:12.914Z,3.20
2018-11-01T07:36:31.520Z,7.30
2018-11-01T07:41:50.087Z,4.13
2018-11-01T07:47:09.781Z,4.90
2018-11-01T07:52:28.475Z,7.20
2018-11-01T07:57:47.032Z,5.22
2018-11-01T08:03:05.572Z,4.73
2018-11-01T08:08:24.146Z,3.57
2018-11-01T08:13:42.855Z,3.57
2018-11-01T08:19:03.776Z,6.80
2018-11-01T08:24:22.510Z,5.80
2018-11-01T08:29:41.923Z,4.70
2018-11-01T08:35:00.584Z,4.33
2018-11-01T08:40:19.200Z,3.07
2018-11-01T08:45:37.806Z,5.20
2018-11-01T08:50:56.538Z,3.70
2018-11-01T08:56:15.329Z,6.70
2018-11-01T09:01:34.883Z,6.30
2018-11-01T09:06:54.227Z,5.53
2018-11-01T09:12:13.084Z,6.27
2018-11-01T09:17:32.103Z,11.10
2018-11-01T09:22:52.035Z,5.77
2018-11-01T09:28:11.106Z,5.53
2018-11-01T09:33:29.675Z,7.27
2018-11-01T09:38:48.859Z,5.13
2018-11-01T09:44:08.127Z,8.87
2018-11-01T09:49:27.443Z,3.27
2018-11-01T09:54:46.078Z,4.50
2018-11-01T10:00:06.770Z,5.50
2018-11-01T10:05:25.466Z,5.40
2018-11-01T10:10:44.183Z,6.07
2018-11-01T10:16:03.582Z,4.67
2018-11-01T10:21:22.300Z,3.93
2018-11-01T10:26:40.853Z,5.20
2018-11-01T10:32:00.301Z,5.53
2018-11-01T10:37:19.732Z,6.03
2018-11-01T10:42:39.636Z,4.97
2018-11-01T10:47:58.229Z,9.60
2018-11-01T10:53:16.808Z,6.07
2018-11-01T10:58:35.394Z,5.50
2018-11-01T11:03:53.994Z,5.07
2018-11-01T11:09:12.675Z,6.63
2018-11-01T11:14:32.217Z,8.60
2018-11-01T11:19:51.543Z,6.37
2018-11-01T11:25:11.511Z,5.37
2018-11-01T11:30:30.258Z,7.13
2018-11-01T11:35:48.924Z,6.40
2018-11-01T11:41:07.492Z,5.97
2018-11-01T11:46:27.474Z,7.80
2018-11-01T11:51:46.040Z,5.70
2018-11-01T11:57:06.034Z,4.30
2018-11-01T12:02:24.665Z,4.77
2018-11-01T12:07:43.207Z,5.20
2018-11-01T12:13:01.802Z,5.90
2018-11-01T12:18:20.924Z,10.47
2018-11-01T12:23:39.516Z,4.53
2018-11-01T12:28:59.886Z,5.97
2018-11-01T12:34:18.682Z,5.17
2018-11-01T12:39:37.460Z,5.33
2018-11-01T12:44:56.080Z,7.37
2018-11-01T12:50:15.038Z,7.28
2018-11-01T12:55:33.548Z,4.67
2018-11-01T13:00:52.138Z,4.87
2018-11-01T13:06:10.915Z,5.90
2018-11-01T13:11:30.348Z,5.27
2018-11-01T13:16:51.409Z,5.67
2018-11-01T13:22:13.285Z,5.43
2018-11-01T13:27:32.214Z,5.37
2018-11-01T13:32:51.558Z,6.90
2018-11-01T13:38:10.210Z,5.57
2018-11-01T13:43:29.288Z,4.57
2018-11-01T13:48:47.902Z,10.87
2018-11-01T13:54:06.719Z,6.63
2018-11-01T13:59:25.840Z,9.43
2018-11-01T14:04:44.528Z,6.43
2018-11-01T14:10:03.351Z,6.67
2018-11-01T14:15:22.258Z,9.70
2018-11-01T14:20:40.764Z,14.17
2018-11-01T14:25:59.308Z,6.90
2018-11-01T14:31:18.038Z,11.50
2018-11-01T14:36:37.518Z,13.17
2018-11-01T14:41:56.856Z,9.93
2018-11-01T14:47:16.728Z,7.33
2018-11-01T14:52:35.877Z,8.00
2018-11-01T14:57:55.227Z,7.20
2018-11-01T15:03:22.397Z,9.33
2018-11-01T15:08:40.920Z,15.00
2018-11-01T15:13:59.491Z,6.87
2018-11-01T15:19:18.093Z,10.27
2018-11-01T15:24:41.910Z,12.27
2018-11-01T15:30:00.720Z,8.37
2018-11-01T15:35:24.066Z,9.08
2018-11-01T15:40:42.823Z,9.20
2018-11-01T15:46:02.614Z,9.10
2018-11-01T15:51:21.170Z,10.07
2018-11-01T15:56:39.988Z,13.17
2018-11-01T16:02:02.839Z,10.40
2018-11-01T16:07:21.597Z,12.33
2018-11-01T16:12:40.459Z,10.30
2018-11-01T16:18:00.057Z,17.93
2018-11-01T16:23:18.613Z,10.97
2018-11-01T16:28:37.135Z,12.33
2018-11-01T16:33:55.715Z,10.33
2018-11-01T16:39:14.290Z,9.93
2018-11-01T16:44:32.824Z,11.70
2018-11-01T16:49:51.408Z,9.37
2018-11-01T16:55:10.280Z,9.37
2018-11-01T17:00:28.938Z,9.87
2018-11-01T17:05:47.372Z,10.80
2018-11-01T17:11:05.933Z,14.23
2018-11-01T17:16:24.603Z,10.30
2018-11-01T17:21:43.197Z,9.23
2018-11-01T17:27:06.071Z,12.37
2018-11-01T17:32:30.564Z,9.03
2018-11-01T17:37:49.137Z,12.20
2018-11-01T17:43:07.805Z,9.33
2018-11-01T17:48:26.294Z,11.97
2018-11-01T17:53:44.979Z,10.17
2018-11-01T17:59:03.711Z,8.30
2018-11-01T18:04:22.335Z,8.80
2018-11-01T18:09:41.058Z,9.13
2018-11-01T18:14:59.721Z,12.50
2018-11-01T18:20:18.650Z,10.05
2018-11-01T18:25:42.477Z,7.47
2018-11-01T18:31:01.227Z,11.80
2018-11-01T18:36:19.742Z,8.60
2018-11-01T18:41:38.283Z,10.27
2018-11-01T18:46:56.863Z,11.43
2018-11-01T18:52:15.386Z,8.13
2018-11-01T18:57:34.012Z,8.83
2018-11-01T19:02:52.548Z,11.33
2018-11-01T19:08:11.113Z,9.40
2018-11-01T19:13:29.684Z,10.63
2018-11-01T19:18:48.170Z,10.70
2018-11-01T19:24:06.801Z,7.87
2018-11-01T19:29:25.604Z,11.13
2018-11-01T19:34:44.218Z,10.00
2018-11-01T19:40:02.727Z,12.23
2018-11-01T19:45:21.215Z,9.88
2018-11-01T19:50:40.499Z,10.97
2018-11-01T19:55:59.384Z,12.27
2018-11-01T20:01:18.023Z,8.20
2018-11-01T20:06:37.030Z,7.00
2018-11-01T20:11:56.216Z,9.03
2018-11-01T20:17:14.729Z,8.93
2018-11-01T20:22:33.286Z,8.83
2018-11-01T20:27:52.934Z,11.87
2018-11-01T20:33:14.036Z,9.77
2018-11-01T20:38:32.802Z,9.23
2018-11-01T20:43:51.303Z,8.37
2018-11-01T20:49:11.017Z,12.50
2018-11-01T20:54:29.567Z,10.10
2018-11-01T20:59:48.955Z,12.10
2018-11-01T21:05:07.971Z,15.73
2018-11-01T21:10:26.527Z,14.43
2018-11-01T21:15:45.533Z,14.50
2018-11-01T21:21:04.122Z,12.90
2018-11-01T21:26:22.749Z,12.07
2018-11-01T21:31:41.725Z,13.37
2018-11-01T21:37:00.744Z,16.17
2018-11-01T21:42:19.388Z,14.67
2018-11-01T21:47:37.933Z,16.77
2018-11-01T21:52:57.113Z,14.40
2018-11-01T21:58:15.623Z,14.00
2018-11-01T22:03:34.352Z,12.87
2018-11-01T22:08:53.087Z,16.85
2018-11-01T22:14:11.631Z,12.50
2018-11-01T22:19:30.185Z,13.63
2018-11-01T22:24:48.742Z,12.07
2018-11-01T22:30:09.203Z,12.63
2018-11-01T22:35:28.078Z,13.80
2018-11-01T22:40:46.951Z,13.07
2018-11-01T22:46:05.697Z,14.13
2018-11-01T22:51:24.191Z,13.33
2018-11-01T22:56:42.693Z,14.83
2018-11-01T23:02:01.308Z,17.30
2018-11-01T23:07:19.809Z,11.50
2018-11-01T23:12:38.510Z,12.57
2018-11-01T23:17:57.015Z,11.43
2018-11-01T23:23:16.176Z,11.47
2018-11-01T23:28:34.719Z,12.47
2018-11-01T23:33:53.281Z,12.17
2018-11-01T23:39:17.172Z,12.28
2018-11-01T23:44:40.877Z,10.97
2018-11-01T23:50:08.463Z,8.33
2018-11-01T23:55:26.918Z,9.93
